Time;durP1;ratioP1;P1;durP2;ratioP2;P2;SDS_P1;SDS_P2;PMS_P1;PMS_P2;Temp;Humidity;BMP_temperature;BMP_pressure;BME280_temperature;BME280_humidity;BME280_pressure;Samples;Min_cycle;Max_cycle;Signal;HPM_P1;HPM_P2
2023/02/19 00:01:43;;;;;;;6.53;1.67;;;;;;;17.24;85.66;102324.41;4944743;29;20027;-76
2023/02/19 00:04:17;;;;;;;3.50;1.15;;;;;;;17.39;83.72;102321.19;4948288;29;20040;-72
2023/02/19 00:06:44;;;;;;;7.70;1.30;;;;;;;17.09;87.98;102328.41;4919363;29;20039;-70
2023/02/19 00:09:11;;;;;;;5.18;1.27;;;;;;;17.20;86.48;102336.06;4934374;29;20058;-73
2023/02/19 00:11:37;;;;;;;5.13;1.50;;;;;;;17.23;85.56;102351.22;4927643;29;20062;-76
2023/02/19 00:14:03;;;;;;;5.65;1.10;;;;;;;17.19;86.02;102350.19;4936471;29;20031;-72
2023/02/19 00:16:32;;;;;;;4.95;1.30;;;;;;;17.27;84.56;102363.22;4936507;29;20035;-76
2023/02/19 00:18:59;;;;;;;5.05;1.50;;;;;;;16.90;91.59;102368.09;4935861;29;20031;-75
2023/02/19 00:21:25;;;;;;;3.92;1.45;;;;;;;16.79;94.54;102369.50;4923855;29;20043;-76
2023/02/19 00:23:56;;;;;;;6.32;1.45;;;;;;;16.92;92.72;102381.56;4924908;29;20044;-74
2023/02/19 00:26:23;;;;;;;4.80;1.40;;;;;;;17.12;89.95;102385.75;4936167;29;20387;-75
2023/02/19 00:28:50;;;;;;;4.65;1.30;;;;;;;17.36;85.49;102377.06;4936081;29;20028;-72
2023/02/19 00:31:22;;;;;;;9.95;2.25;;;;;;;17.32;86.04;102387.97;4918907;29;20027;-77
2023/02/19 00:33:50;;;;;;;3.40;1.30;;;;;;;17.20;87.98;102391.31;4936058;29;20043;-77
2023/02/19 00:36:16;;;;;;;7.78;1.55;;;;;;;17.39;84.54;102396.59;4928677;29;20042;-76
2023/02/19 00:38:43;;;;;;;4.32;1.40;;;;;;;17.33;85.66;102391.53;4916915;29;20032;-75
2023/02/19 00:41:19;;;;;;;5.20;1.45;;;;;;;17.25;86.89;102390.38;4916820;29;20481;-76
2023/02/19 00:43:52;;;;;;;7.10;1.88;;;;;;;17.28;86.55;102391.66;4916827;29;20040;-75
2023/02/19 00:46:20;;;;;;;7.03;1.60;;;;;;;17.36;85.53;102400.00;4916837;29;20028;-76
2023/02/19 00:48:47;;;;;;;5.45;1.73;;;;;;;17.37;85.42;102409.09;4920460;29;20086;-75
2023/02/19 00:51:13;;;;;;;2.75;1.00;;;;;;;17.37;85.62;102409.09;4923687;29;20094;-76
2023/02/19 00:53:38;;;;;;;7.97;1.42;;;;;;;17.35;86.03;102420.47;4899697;29;20495;-75
2023/02/19 00:56:05;;;;;;;3.15;0.93;;;;;;;17.32;86.18;102414.78;4916661;29;20032;-77
2023/02/19 00:58:31;;;;;;;4.93;1.42;;;;;;;17.31;85.48;102415.91;4916839;29;20067;-76
2023/02/19 01:00:56;;;;;;;7.75;1.30;;;;;;;17.25;85.92;102412.47;4922939;29;20462;-76
2023/02/19 01:03:22;;;;;;;8.20;2.05;;;;;;;17.24;86.63;102418.31;4928756;29;20110;-75
2023/02/19 01:05:52;;;;;;;4.68;1.25;;;;;;;17.23;86.27;102411.97;4927200;29;20063;-76
2023/02/19 01:08:18;;;;;;;7.95;1.50;;;;;;;17.17;87.01;102418.75;4916495;29;20032;-76
2023/02/19 01:10:43;;;;;;;5.55;1.30;;;;;;;17.23;85.21;102405.59;4916305;29;20373;-70
2023/02/19 01:13:09;;;;;;;5.47;1.30;;;;;;;17.21;85.08;102400.41;4916373;29;20036;-76
2023/02/19 01:15:35;;;;;;;7.35;1.85;;;;;;;17.14;85.79;102397.28;4918913;29;20042;-76
2023/02/19 01:18:01;;;;;;;5.45;1.52;;;;;;;17.06;87.46;102396.09;4924608;29;20024;-76
2023/02/19 01:20:27;;;;;;;4.95;1.60;;;;;;;17.05;87.88;102397.25;4916518;29;20080;-70
2023/02/19 01:22:52;;;;;;;4.65;1.02;;;;;;;16.84;91.72;102408.00;4916235;29;20031;-76
2023/02/19 01:25:18;;;;;;;6.00;1.52;;;;;;;16.82;93.49;102404.75;4916235;29;20024;-75
2023/02/19 01:27:44;;;;;;;6.28;1.50;;;;;;;16.80;94.78;102404.25;4916674;29;20028;-75
2023/02/19 01:30:10;;;;;;;4.85;1.60;;;;;;;16.81;95.81;102407.81;4926819;29;20043;-74
2023/02/19 01:32:36;;;;;;;7.80;1.40;;;;;;;16.90;95.36;102408.69;4919265;29;20087;-76
2023/02/19 01:35:01;;;;;;;4.90;1.60;;;;;;;16.81;97.72;102427.16;4920244;29;20511;-75
2023/02/19 01:37:28;;;;;;;5.80;1.65;;;;;;;16.61;100.00;102415.44;4920239;29;20205;-75
2023/02/19 01:39:54;;;;;;;3.97;1.33;;;;;;;16.74;100.00;102413.78;4919972;29;20034;-74
2023/02/19 01:42:19;;;;;;;4.43;1.60;;;;;;;16.82;100.00;102412.22;4920229;29;20112;-76
2023/02/19 01:44:45;;;;;;;9.90;1.40;;;;;;;16.63;100.00;102396.63;4928043;29;20036;-76
2023/02/19 01:47:11;;;;;;;4.20;1.52;;;;;;;16.54;100.00;102397.69;4938939;29;20128;-76
2023/02/19 01:49:56;;;;;;;5.80;2.17;;;;;;;16.56;100.00;102401.78;4938973;29;20027;-76
2023/02/19 01:52:27;;;;;;;7.88;1.60;;;;;;;16.28;100.00;102406.56;4938900;29;20020;-76
2023/02/19 01:54:54;;;;;;;5.18;1.33;;;;;;;16.42;100.00;102403.78;4938832;29;20074;-76
2023/02/19 01:57:23;;;;;;;4.45;1.38;;;;;;;16.42;100.00;102408.47;4938764;29;20119;-73
2023/02/19 01:59:54;;;;;;;5.13;1.73;;;;;;;16.55;100.00;102407.59;4930478;29;20043;-75
2023/02/19 02:02:27;;;;;;;4.20;1.40;;;;;;;16.54;100.00;102405.97;4919707;29;20036;-75
2023/02/19 02:04:54;;;;;;;4.68;1.50;;;;;;;16.58;100.00;102412.50;4919650;29;20043;-75
2023/02/19 02:10:19;;;;;;;4.60;1.75;;;;;;;16.63;100.00;102417.91;4919884;29;20402;-77
2023/02/19 02:12:46;;;;;;;5.53;1.50;;;;;;;16.68;100.00;102423.28;4925808;29;20047;-76
2023/02/19 02:15:15;;;;;;;3.85;1.52;;;;;;;16.49;100.00;102422.66;4931763;29;20103;-75
2023/02/19 02:18:04;;;;;;;5.00;1.90;;;;;;;16.50;100.00;102424.28;4925041;29;20529;-75
2023/02/19 02:20:38;;;;;;;4.50;1.92;;;;;;;16.52;100.00;102425.59;4919360;29;20065;-75
2023/02/19 02:23:27;;;;;;;5.13;1.20;;;;;;;16.77;100.00;102442.69;4919304;29;20043;-76
2023/02/19 02:26:09;;;;;;;6.20;1.90;;;;;;;16.73;100.00;102448.03;4923275;29;20028;-76
2023/02/19 02:28:44;;;;;;;4.93;1.50;;;;;;;16.78;100.00;102463.66;4929857;29;20027;-70
2023/02/19 02:31:21;;;;;;;7.72;1.90;;;;;;;16.62;100.00;102461.25;4938261;29;20359;-76
2023/02/19 02:34:19;;;;;;;7.68;1.80;;;;;;;16.73;100.00;102469.31;4938180;29;20431;-76
2023/02/19 02:36:52;;;;;;;6.07;1.98;;;;;;;16.73;100.00;102469.31;4938119;29;20558;-76
2023/02/19 02:39:21;;;;;;;4.35;1.30;;;;;;;16.60;100.00;102466.25;4931632;29;20099;-75
2023/02/19 02:44:40;;;;;;;6.47;1.20;;;;;;;16.53;100.00;102476.91;4919312;29;20044;-75
2023/02/19 02:47:39;;;;;;;6.85;1.67;;;;;;;16.59;100.00;102459.09;4918711;29;20032;-76
2023/02/19 02:50:05;;;;;;;5.40;1.60;;;;;;;16.60;100.00;102459.91;4918805;29;20036;-75
2023/02/19 02:55:20;;;;;;;5.18;1.48;;;;;;;16.64;100.00;102469.22;4938014;29;20538;-76
2023/02/19 02:57:45;;;;;;;6.82;1.65;;;;;;;16.63;100.00;102484.97;4937830;29;20031;-76
2023/02/19 03:00:15;;;;;;;8.77;1.60;;;;;;;16.49;100.00;102492.47;4937499;29;20032;-72
2023/02/19 03:02:42;;;;;;;7.57;1.75;;;;;;;16.57;100.00;102494.47;4934393;29;20066;-74
2023/02/19 03:07:55;;;;;;;5.18;1.45;;;;;;;16.52;100.00;102474.44;4933088;29;20108;-76
2023/02/19 03:10:32;;;;;;;8.30;1.88;;;;;;;16.65;100.00;102487.41;4918132;29;20036;-76
2023/02/19 03:21:27;;;;;;;9.75;2.35;;;;;;;16.48;100.00;102490.00;4919295;29;20514;-75
2023/02/19 03:26:41;;;;;;;5.28;1.20;;;;;;;16.30;100.00;102498.09;4918499;29;20574;-73
2023/02/19 03:29:24;;;;;;;6.43;1.98;;;;;;;16.18;100.00;102510.81;4918419;29;20057;-76
2023/02/19 03:32:05;;;;;;;7.45;2.13;;;;;;;16.06;100.00;102506.63;4910184;29;20035;-73
2023/02/19 03:34:39;;;;;;;7.60;1.40;;;;;;;15.95;100.00;102513.47;4933998;29;20082;-72
2023/02/19 03:37:30;;;;;;;6.85;1.90;;;;;;;15.90;100.00;102510.00;4937195;29;20058;-73
2023/02/19 03:39:56;;;;;;;6.35;1.55;;;;;;;16.09;100.00;102508.75;4923938;29;20040;-75
2023/02/19 03:42:57;;;;;;;6.90;1.40;;;;;;;15.82;100.00;102493.03;4918030;29;20024;-75
2023/02/19 03:45:40;;;;;;;4.63;1.80;;;;;;;15.92;100.00;102483.75;4921527;29;20062;-74
2023/02/19 03:48:32;;;;;;;8.18;1.80;;;;;;;15.66;100.00;102488.13;4922569;29;20677;-74
2023/02/19 03:51:38;;;;;;;4.55;2.03;;;;;;;15.67;100.00;102490.59;4892759;29;20048;-74
2023/02/19 03:54:16;;;;;;;5.60;1.83;;;;;;;15.66;100.00;102501.91;4900159;29;20559;-73
2023/02/19 03:56:49;;;;;;;8.48;2.10;;;;;;;15.82;100.00;102495.78;4918051;29;20378;-73
2023/02/19 03:59:26;;;;;;;7.10;1.85;;;;;;;15.75;100.00;102495.38;4924115;29;20032;-72
2023/02/19 04:02:42;;;;;;;17.98;2.70;;;;;;;15.81;100.00;102499.69;4917614;29;20063;-75
2023/02/19 04:05:13;;;;;;;6.60;1.63;;;;;;;15.54;100.00;102500.44;4904152;29;20043;-73
2023/02/19 04:07:45;;;;;;;8.07;2.38;;;;;;;15.50;100.00;102491.16;4928760;29;20027;-71
2023/02/19 04:10:13;;;;;;;7.13;1.92;;;;;;;15.56;100.00;102494.59;4916830;29;20046;-73
2023/02/19 04:12:43;;;;;;;7.60;2.25;;;;;;;15.52;100.00;102493.59;4930654;29;20463;-74
2023/02/19 04:15:19;;;;;;;8.93;2.03;;;;;;;15.47;100.00;102502.75;4927078;29;20044;-71
2023/02/19 04:17:52;;;;;;;12.85;2.55;;;;;;;15.42;100.00;102496.56;4906433;29;20087;-72
2023/02/19 04:20:20;;;;;;;14.00;2.28;;;;;;;15.42;100.00;102502.06;4919969;29;20023;-72
2023/02/19 04:22:46;;;;;;;9.45;2.63;;;;;;;15.43;100.00;102511.94;4930666;29;20105;-73
2023/02/19 04:25:12;;;;;;;8.20;1.80;;;;;;;15.16;100.00;102512.69;4924420;29;20024;-72
2023/02/19 04:27:38;;;;;;;11.45;3.20;;;;;;;15.01;100.00;102521.19;4931805;29;20395;-73
2023/02/19 04:30:06;;;;;;;11.68;2.75;;;;;;;15.08;100.00;102508.69;4917707;29;20458;-71
2023/02/19 04:32:32;;;;;;;11.77;2.38;;;;;;;15.12;100.00;102508.91;4900034;29;20044;-72
2023/02/19 04:34:58;;;;;;;10.45;2.80;;;;;;;15.03;100.00;102513.44;4916904;29;20492;-73
2023/02/19 04:37:23;;;;;;;18.45;3.67;;;;;;;15.01;100.00;102515.69;4933480;29;20038;-75
2023/02/19 04:39:49;;;;;;;10.32;2.97;;;;;;;15.15;100.00;102513.81;4927492;29;20031;-71
2023/02/19 04:42:14;;;;;;;5.93;1.77;;;;;;;15.14;100.00;102513.00;4917310;29;20032;-71
2023/02/19 04:44:40;;;;;;;8.68;2.15;;;;;;;15.07;100.00;102520.00;4916702;29;20107;-70
2023/02/19 04:47:06;;;;;;;6.18;1.98;;;;;;;14.95;100.00;102514.94;4932149;29;20027;-70
2023/02/19 04:49:31;;;;;;;7.78;2.22;;;;;;;15.02;100.00;102509.06;4925373;29;20035;-76
2023/02/19 04:51:57;;;;;;;11.27;1.98;;;;;;;15.09;100.00;102507.56;4913673;29;20395;-75
2023/02/19 04:54:22;;;;;;;12.43;2.17;;;;;;;15.02;100.00;102495.28;4924001;29;20036;-71
2023/02/19 04:56:49;;;;;;;7.13;1.73;;;;;;;15.10;100.00;102494.59;4934342;29;20066;-70
2023/02/19 04:59:15;;;;;;;7.45;2.30;;;;;;;15.12;100.00;102497.91;4927634;29;20046;-71
2023/02/19 05:01:41;;;;;;;9.10;2.10;;;;;;;15.12;100.00;102493.22;4928025;29;20435;-70
2023/02/19 05:04:06;;;;;;;5.85;1.80;;;;;;;15.19;100.00;102470.78;4932809;29;20035;-70
2023/02/19 05:06:32;;;;;;;7.13;1.95;;;;;;;15.26;100.00;102460.19;4935501;29;20099;-71
2023/02/19 05:08:58;;;;;;;7.07;2.13;;;;;;;15.21;100.00;102452.84;4926846;29;20452;-70
2023/02/19 05:11:23;;;;;;;5.40;1.80;;;;;;;15.16;100.00;102446.59;4933529;29;20075;-70
2023/02/19 05:13:49;;;;;;;8.20;2.72;;;;;;;15.22;100.00;102453.66;4935354;29;20031;-71
2023/02/19 05:16:15;;;;;;;10.75;2.88;;;;;;;15.20;100.00;102447.66;4935343;29;20035;-71
2023/02/19 05:18:43;;;;;;;7.47;2.72;;;;;;;15.11;100.00;102453.00;4929497;29;20031;-71
2023/02/19 05:21:10;;;;;;;9.50;2.17;;;;;;;15.12;100.00;102468.44;4910393;29;20451;-72
2023/02/19 05:23:36;;;;;;;10.90;2.65;;;;;;;15.04;100.00;102460.88;4909763;29;20130;-70
2023/02/19 05:26:15;;;;;;;6.93;1.70;;;;;;;15.13;100.00;102460.97;4935152;29;20068;-72
2023/02/19 05:28:41;;;;;;;4.32;2.22;;;;;;;15.13;100.00;102463.75;4935510;29;20036;-71
2023/02/19 05:31:08;;;;;;;10.95;2.75;;;;;;;15.25;100.00;102461.31;4935223;29;20495;-70
2023/02/19 05:33:34;;;;;;;8.95;2.75;;;;;;;15.38;100.00;102463.28;4935086;29;20102;-71
2023/02/19 05:36:06;;;;;;;6.22;1.70;;;;;;;15.11;100.00;102460.44;4929618;29;20143;-70
2023/02/19 05:38:32;;;;;;;7.15;1.85;;;;;;;15.24;100.00;102467.94;4920681;29;20031;-75
2023/02/19 05:41:11;;;;;;;7.70;2.15;;;;;;;15.39;100.00;102455.81;4899213;29;20056;-75
2023/02/19 05:43:38;;;;;;;6.85;1.98;;;;;;;15.54;100.00;102439.00;4916037;29;20032;-76
2023/02/19 05:46:05;;;;;;;6.75;1.90;;;;;;;15.42;100.00;102436.75;4916043;29;20104;-74
2023/02/19 05:48:31;;;;;;;8.07;1.67;;;;;;;15.34;100.00;102450.41;4920816;29;20043;-75
2023/02/19 05:51:04;;;;;;;8.20;2.25;;;;;;;15.47;100.00;102439.41;4926402;29;20036;-75
2023/02/19 05:53:29;;;;;;;7.60;1.65;;;;;;;15.61;100.00;102450.47;4935065;29;20027;-75
2023/02/19 05:55:55;;;;;;;7.70;2.45;;;;;;;15.44;100.00;102450.22;4935008;29;20079;-76
2023/02/19 05:58:20;;;;;;;6.15;1.50;;;;;;;15.79;100.00;102451.47;4934935;29;20110;-75
2023/02/19 06:00:46;;;;;;;9.15;2.38;;;;;;;15.79;100.00;102445.97;4934920;29;20090;-75
2023/02/19 06:03:12;;;;;;;6.90;2.13;;;;;;;15.78;100.00;102442.41;4931116;29;20039;-73
2023/02/19 06:05:37;;;;;;;8.20;1.75;;;;;;;15.90;100.00;102417.09;4928503;29;20032;-75
2023/02/19 06:08:03;;;;;;;6.13;1.83;;;;;;;15.91;100.00;102415.13;4934967;29;20034;-75
2023/02/19 06:10:29;;;;;;;6.65;2.50;;;;;;;15.87;100.00;102420.47;4934816;29;20031;-75
2023/02/19 06:12:54;;;;;;;5.90;1.98;;;;;;;15.85;100.00;102400.63;4933439;29;20059;-75
2023/02/19 06:15:20;;;;;;;5.25;1.67;;;;;;;15.94;100.00;102414.50;4935048;29;20027;-76
2023/02/19 06:17:46;;;;;;;6.88;2.10;;;;;;;15.89;100.00;102409.13;4931673;29;20115;-75
2023/02/19 06:20:12;;;;;;;7.72;2.10;;;;;;;15.99;100.00;102406.94;4919346;29;20039;-75
2023/02/19 06:22:37;;;;;;;9.85;2.05;;;;;;;16.12;100.00;102401.72;4919343;29;20032;-76
2023/02/19 06:25:04;;;;;;;8.60;2.47;;;;;;;16.14;100.00;102407.75;4919525;29;20036;-74
2023/02/19 06:27:30;;;;;;;11.25;2.20;;;;;;;16.23;100.00;102408.63;4919227;29;20039;-70
2023/02/19 06:29:55;;;;;;;8.95;1.92;;;;;;;16.06;100.00;102409.28;4925652;29;20028;-75
2023/02/19 06:32:22;;;;;;;8.32;1.92;;;;;;;16.11;100.00;102409.19;4936807;29;20501;-71
2023/02/19 06:34:47;;;;;;;5.15;1.80;;;;;;;16.01;100.00;102420.41;4938193;29;20032;-75
2023/02/19 06:37:13;;;;;;;7.63;2.03;;;;;;;15.87;100.00;102414.94;4929368;29;20099;-71
2023/02/19 06:39:38;;;;;;;10.75;2.42;;;;;;;15.78;100.00;102433.31;4924755;29;20040;-71
2023/02/19 06:42:04;;;;;;;8.10;1.70;;;;;;;15.87;100.00;102414.09;4932134;29;20032;-73
2023/02/19 06:44:30;;;;;;;11.52;2.95;;;;;;;15.85;100.00;102411.66;4938179;29;20032;-70
2023/02/19 06:46:55;;;;;;;9.20;2.38;;;;;;;16.02;100.00;102411.03;4937949;29;20567;-71
2023/02/19 06:49:21;;;;;;;7.75;2.72;;;;;;;15.99;100.00;102412.47;4936971;29;20098;-70
2023/02/19 06:51:47;;;;;;;7.95;1.90;;;;;;;15.87;100.00;102414.94;4937951;29;20067;-71
2023/02/19 06:54:12;;;;;;;11.23;2.60;;;;;;;15.90;100.00;102414.31;4925735;29;20040;-72
2023/02/19 06:56:40;;;;;;;7.20;2.10;;;;;;;16.13;100.00;102426.22;4932146;29;20032;-71
2023/02/19 06:59:11;;;;;;;6.60;2.17;;;;;;;16.20;100.00;102429.38;4937727;29;20027;-70
2023/02/19 07:01:39;;;;;;;10.75;3.30;;;;;;;16.27;100.00;102435.28;4936155;29;20516;-75
2023/02/19 07:04:06;;;;;;;7.38;2.28;;;;;;;16.19;100.00;102429.69;4933341;29;20032;-71
2023/02/19 07:06:33;;;;;;;4.72;2.03;;;;;;;16.28;100.00;102425.06;4937797;29;20431;-70
2023/02/19 07:08:59;;;;;;;8.65;2.92;;;;;;;16.26;100.00;102427.34;4937826;29;20032;-71
2023/02/19 07:11:27;;;;;;;12.52;2.92;;;;;;;16.22;100.00;102442.84;4937428;29;20066;-71
2023/02/19 07:14:04;;;;;;;10.82;2.45;;;;;;;16.20;100.00;102451.44;4920083;29;20036;-71
2023/02/19 07:16:29;;;;;;;4.97;2.10;;;;;;;16.17;100.00;102454.00;4917901;29;20475;-71
2023/02/19 07:18:56;;;;;;;6.55;2.20;;;;;;;16.21;100.00;102455.03;4931327;29;20038;-71
2023/02/19 07:21:22;;;;;;;5.82;2.53;;;;;;;16.20;100.00;102462.47;4929601;29;20134;-71
2023/02/19 07:23:48;;;;;;;4.95;2.10;;;;;;;16.29;100.00;102465.31;4931432;29;20075;-71
2023/02/19 07:26:16;;;;;;;6.10;1.63;;;;;;;16.28;100.00;102461.75;4942774;29;20099;-70
2023/02/19 07:28:46;;;;;;;4.07;1.40;;;;;;;16.12;100.00;102471.47;4929959;29;20392;-71
2023/02/19 07:31:11;;;;;;;;;;;;;;;16.35;100.00;102464.09;4918941;29;20032;-70
2023/02/19 07:33:43;;;;;;;4.30;1.45;;;;;;;16.01;100.00;102484.66;4936808;29;20301;-71
2023/02/19 07:36:09;;;;;;;5.10;1.33;;;;;;;15.94;100.00;102491.69;4926474;29;20060;-70
2023/02/19 07:38:35;;;;;;;6.13;1.80;;;;;;;15.92;100.00;102500.28;4927617;29;20068;-70
2023/02/19 07:41:02;;;;;;;6.85;1.58;;;;;;;15.90;100.00;102508.06;4936799;29;20393;-71
2023/02/19 07:43:31;;;;;;;4.13;1.27;;;;;;;15.90;100.00;102502.53;4929208;29;20055;-71
2023/02/19 07:45:57;;;;;;;3.63;1.30;;;;;;;16.16;100.00;102510.28;4936677;29;20372;-70
2023/02/19 07:48:23;;;;;;;5.05;1.08;;;;;;;15.90;100.00;102510.81;4936877;29;20038;-70
2023/02/19 07:50:57;;;;;;;3.72;1.33;;;;;;;15.86;100.00;102518.03;4926276;29;20523;-70
2023/02/19 07:53:23;;;;;;;3.47;1.50;;;;;;;15.96;100.00;102511.53;4917614;29;20116;-71
2023/02/19 07:55:50;;;;;;;4.90;1.40;;;;;;;15.94;100.00;102520.09;4917874;29;20396;-71
2023/02/19 07:58:16;;;;;;;4.32;1.55;;;;;;;15.91;100.00;102515.19;4917581;29;20039;-70
2023/02/19 08:00:42;;;;;;;2.15;1.27;;;;;;;15.91;100.00;102515.19;4900239;29;20095;-70
2023/02/19 08:03:08;;;;;;;3.53;1.40;;;;;;;16.07;100.00;102511.00;4916506;29;20124;-70
2023/02/19 08:05:39;;;;;;;4.15;1.98;;;;;;;16.09;100.00;102510.69;4915622;29;20036;-71
2023/02/19 08:08:07;;;;;;;3.47;1.75;;;;;;;16.18;100.00;102508.88;4915572;29;20043;-70
2023/02/19 08:13:23;;;;;;;4.13;1.95;;;;;;;16.19;100.00;102499.47;4915646;29;20415;-70
2023/02/19 08:15:52;;;;;;;2.97;1.65;;;;;;;16.24;100.00;102484.72;4915628;29;20657;-73
2023/02/19 08:18:20;;;;;;;3.50;1.80;;;;;;;16.20;100.00;102473.50;4915959;29;20103;-70
2023/02/19 08:20:46;;;;;;;3.75;2.20;;;;;;;16.16;100.00;102482.69;4918174;29;20109;-70
2023/02/19 08:23:12;;;;;;;4.63;2.17;;;;;;;16.23;100.00;102494.13;4900260;29;20403;-70
2023/02/19 08:25:39;;;;;;;8.10;2.65;;;;;;;16.31;100.00;102485.13;4900152;29;20076;-70
2023/02/19 08:28:07;;;;;;;3.95;1.77;;;;;;;16.30;100.00;102477.97;4917294;29;20439;-70
2023/02/19 08:30:33;;;;;;;5.07;3.25;;;;;;;16.36;100.00;102477.56;4917151;29;20031;-70
2023/02/19 08:33:00;;;;;;;6.10;1.92;;;;;;;16.39;100.00;102470.59;4917061;29;20047;-70
2023/02/19 08:35:27;;;;;;;4.00;2.28;;;;;;;16.29;100.00;102471.66;4916926;29;20036;-70
2023/02/19 08:37:57;;;;;;;5.35;3.03;;;;;;;16.20;100.00;102467.19;4917863;29;20087;-70
2023/02/19 08:40:22;;;;;;;;;;;;;;;16.35;100.00;102472.34;4917106;29;20043;-70
2023/02/19 08:42:48;;;;;;;6.10;2.55;;;;;;;16.21;100.00;102455.84;4916932;29;20296;-71
2023/02/19 08:45:13;;;;;;;4.68;1.70;;;;;;;16.22;100.00;102454.69;4916797;29;20028;-70
2023/02/19 08:47:39;;;;;;;5.25;2.28;;;;;;;16.57;100.00;102453.09;4916740;29;20056;-70
2023/02/19 08:50:06;;;;;;;5.28;2.38;;;;;;;16.50;100.00;102463.72;4902516;29;20113;-70
2023/02/19 08:52:32;;;;;;;3.75;1.95;;;;;;;16.48;100.00;102463.25;4918718;29;20043;-74
2023/02/19 08:54:58;;;;;;;6.25;2.33;;;;;;;16.50;100.00;102449.94;4935614;29;20034;-70
2023/02/19 08:57:23;;;;;;;4.18;2.00;;;;;;;16.58;100.00;102449.19;4935413;29;20027;-71
2023/02/19 08:59:49;;;;;;;8.88;1.90;;;;;;;16.49;100.00;102453.00;4924520;29;20573;-70
2023/02/19 09:02:15;;;;;;;3.50;1.70;;;;;;;16.30;100.00;102461.44;4916559;29;20024;-70
2023/02/19 09:04:41;;;;;;;4.57;1.67;;;;;;;16.40;100.00;102466.75;4899534;29;20048;-70
2023/02/19 09:07:08;;;;;;;3.63;1.42;;;;;;;16.41;100.00;102467.56;4916558;29;20028;-70
2023/02/19 09:09:36;;;;;;;6.53;1.60;;;;;;;16.36;100.00;102460.19;4916550;29;20052;-70
2023/02/19 09:12:10;;;;;;;4.20;1.67;;;;;;;16.44;100.00;102464.16;4916149;29;20407;-70
2023/02/19 09:14:37;;;;;;;4.65;1.48;;;;;;;16.36;100.00;102460.19;4917729;29;20060;-70
2023/02/19 09:17:04;;;;;;;4.03;1.50;;;;;;;16.29;100.00;102470.84;4916257;29;20067;-70
2023/02/19 09:19:30;;;;;;;3.10;1.40;;;;;;;16.32;100.00;102464.69;4930260;29;20038;-70
2023/02/19 09:21:56;;;;;;;4.78;1.63;;;;;;;16.50;100.00;102471.19;4935345;29;20109;-70
2023/02/19 09:24:22;;;;;;;5.05;2.15;;;;;;;16.47;100.00;102469.03;4935297;29;20041;-70
2023/02/19 09:26:48;;;;;;;10.30;2.53;;;;;;;16.45;100.00;102463.03;4918279;29;20387;-70
2023/02/19 09:29:14;;;;;;;3.40;1.70;;;;;;;16.53;100.00;102456.75;4935164;29;20023;-70
2023/02/19 09:31:40;;;;;;;5.10;2.15;;;;;;;16.65;100.00;102455.09;4933514;29;20036;-70
2023/02/19 09:34:06;;;;;;;6.78;3.15;;;;;;;16.54;100.00;102453.69;4935181;29;20027;-70
2023/02/19 09:36:32;;;;;;;7.00;3.58;;;;;;;16.63;100.00;102453.78;4935164;29;20649;-70
2023/02/19 09:38:59;;;;;;;6.63;4.55;;;;;;;16.48;100.00;102456.91;4935176;29;20028;-70
2023/02/19 09:41:32;;;;;;;10.15;6.00;;;;;;;16.51;100.00;102457.09;4935055;29;20031;-70
2023/02/19 09:44:00;;;;;;;7.13;5.20;;;;;;;16.60;100.00;102469.00;4929767;29;20119;-71
2023/02/19 09:46:31;;;;;;;7.65;5.80;;;;;;;16.57;100.00;102464.13;4915851;29;20119;-71
2023/02/19 09:49:13;;;;;;;9.40;5.85;;;;;;;16.74;100.00;102454.38;4916165;29;20539;-71
2023/02/19 09:51:42;;;;;;;9.57;5.20;;;;;;;16.80;100.00;102475.22;4916190;29;20032;-70
2023/02/19 09:54:19;;;;;;;8.98;5.15;;;;;;;16.73;100.00;102472.06;4919948;29;20584;-70
2023/02/19 09:56:45;;;;;;;6.68;4.68;;;;;;;16.84;100.00;102478.97;4926941;29;20078;-70
2023/02/19 09:59:21;;;;;;;8.32;4.97;;;;;;;16.87;100.00;102476.41;4938832;29;20059;-70
2023/02/19 10:01:50;;;;;;;6.50;3.47;;;;;;;16.77;100.00;102481.34;4937878;29;20043;-70
2023/02/19 10:04:16;;;;;;;7.32;3.83;;;;;;;17.03;100.00;102485.13;4938800;29;20027;-70
2023/02/19 10:06:42;;;;;;;6.97;3.67;;;;;;;16.97;100.00;102480.03;4938743;29;20035;-70
2023/02/19 10:09:24;;;;;;;5.53;3.00;;;;;;;16.91;100.00;102462.78;4938672;29;20032;-70
2023/02/19 10:11:52;;;;;;;6.60;3.13;;;;;;;17.10;100.00;102465.34;4938351;29;20054;-70
2023/02/19 10:14:39;;;;;;;9.70;3.55;;;;;;;17.21;100.00;102455.66;4938546;29;20043;-70
2023/02/19 10:17:05;;;;;;;6.63;2.47;;;;;;;16.96;100.00;102456.31;4936923;29;20561;-70
2023/02/19 10:19:33;;;;;;;4.15;2.45;;;;;;;16.84;100.00;102462.41;4938328;29;20032;-70
2023/02/19 10:22:01;;;;;;;3.65;1.90;;;;;;;17.10;100.00;102457.88;4945511;29;20027;-70
2023/02/19 10:24:29;;;;;;;3.15;2.10;;;;;;;17.03;100.00;102460.25;4945881;29;20023;-70
2023/02/19 10:26:55;;;;;;;8.27;2.17;;;;;;;17.04;100.00;102459.13;4946884;29;20038;-71
2023/02/19 10:29:23;;;;;;;5.93;1.30;;;;;;;16.96;100.00;102437.81;4913810;29;20043;-73
2023/02/19 10:31:50;;;;;;;2.97;1.50;;;;;;;17.22;100.00;102451.75;4932817;29;20038;-74
2023/02/19 10:34:19;;;;;;;4.43;1.45;;;;;;;17.26;100.00;102438.13;4938097;29;20027;-70
2023/02/19 10:36:47;;;;;;;4.50;1.27;;;;;;;17.24;100.00;102432.13;4938175;29;20470;-72
2023/02/19 10:39:22;;;;;;;7.57;1.85;;;;;;;17.16;100.00;102430.94;4938137;29;20024;-76
2023/02/19 10:41:49;;;;;;;3.60;1.10;;;;;;;17.11;100.00;102442.13;4934964;29;20510;-74
2023/02/19 10:44:21;;;;;;;3.70;1.52;;;;;;;17.15;100.00;102452.22;4914053;29;20042;-71
2023/02/19 10:46:54;;;;;;;3.45;0.82;;;;;;;17.11;100.00;102451.22;4937224;29;20036;-71
2023/02/19 10:49:49;;;;;;;3.85;1.60;;;;;;;17.03;100.00;102457.50;4933399;29;20039;-70
2023/02/19 10:52:27;;;;;;;2.85;1.10;;;;;;;17.37;100.00;102447.78;4907618;29;20055;-70
2023/02/19 10:54:56;;;;;;;4.20;1.20;;;;;;;17.27;100.00;102425.97;4901795;29;20032;-71
2023/02/19 10:57:29;;;;;;;4.28;1.27;;;;;;;17.29;100.00;102446.59;4934004;29;20391;-69
2023/02/19 11:00:16;;;;;;;6.15;1.80;;;;;;;17.32;100.00;102436.88;4914858;29;20089;-71
2023/02/19 11:02:43;;;;;;;4.40;1.35;;;;;;;17.71;100.00;102445.19;4941601;29;20035;-72
2023/02/19 11:05:08;;;;;;;3.53;1.60;;;;;;;17.75;100.00;102439.81;4944408;29;20106;-70
2023/02/19 11:07:42;;;;;;;3.97;1.20;;;;;;;17.68;100.00;102440.28;4946910;29;20118;-70
2023/02/19 11:10:48;;;;;;;7.85;1.52;;;;;;;17.82;100.00;102445.69;4946297;29;20114;-70
2023/02/19 11:13:22;;;;;;;4.97;1.77;;;;;;;17.53;100.00;102437.91;4945580;29;20047;-70
2023/02/19 11:15:54;;;;;;;6.80;1.55;;;;;;;17.60;100.00;102440.22;4929112;29;20122;-74
2023/02/19 11:18:26;;;;;;;2.17;1.33;;;;;;;17.82;100.00;102450.41;4942556;29;20031;-72
2023/02/19 11:20:55;;;;;;;2.67;1.30;;;;;;;17.70;100.00;102453.78;4939148;29;20035;-74
2023/02/19 11:23:28;;;;;;;4.53;1.13;;;;;;;17.85;100.00;102460.84;4931328;29;20056;-76
2023/02/19 11:25:56;;;;;;;6.65;1.50;;;;;;;17.94;100.00;102454.19;4918424;29;20598;-73
2023/02/19 11:28:37;;;;;;;8.32;1.90;;;;;;;18.00;99.45;102458.47;4918292;29;20091;-70
2023/02/19 11:31:34;;;;;;;5.10;1.30;;;;;;;17.84;100.00;102475.81;4918207;29;20040;-70
2023/02/19 11:34:28;;;;;;;7.63;1.58;;;;;;;17.93;100.00;102471.13;4912449;29;20131;-71
2023/02/19 11:37:19;;;;;;;13.35;2.80;;;;;;;18.03;100.00;102456.97;4918171;29;20028;-69
2023/02/19 11:39:48;;;;;;;2.83;1.15;;;;;;;18.08;100.00;102453.25;4917936;29;20067;-70
2023/02/19 11:42:37;;;;;;;5.20;1.67;;;;;;;17.92;100.00;102444.63;4931030;29;20085;-70
2023/02/19 11:45:16;;;;;;;7.90;1.50;;;;;;;17.87;100.00;102442.78;4945480;29;20040;-75
2023/02/19 11:47:56;;;;;;;5.93;1.27;;;;;;;17.72;100.00;102430.22;4945346;29;20111;-74
2023/02/19 11:50:37;;;;;;;;;;;;;;;17.87;100.00;102437.25;4928621;29;20032;-74
2023/02/19 11:53:02;;;;;;;8.70;1.80;;;;;;;18.12;98.65;102443.16;4943433;29;20080;-70
2023/02/19 11:55:48;;;;;;;12.60;2.92;;;;;;;18.20;97.76;102445.13;4947579;29;20119;-69
2023/02/19 11:58:51;;;;;;;13.15;3.05;;;;;;;18.01;98.26;102431.59;4955856;29;20023;-75